Time;durP1;ratioP1;P1;durP2;ratioP2;P2;SDS_P1;SDS_P2;PMS_P1;PMS_P2;Temp;Humidity;BMP_temperature;BMP_pressure;BME280_temperature;BME280_humidity;BME280_pressure;Samples;Min_cycle;Max_cycle;Signal;HPM_P1;HPM_P2
2024/01/08 00:01:50;;;;;;;13.67;12.23;;;;;;;22.66;38.11;93496.22;6058471;28;109149;-54
2024/01/08 00:04:54;;;;;;;13.90;12.20;;;;;;;22.68;38.19;93496.69;6046714;28;109949;-54
2024/01/08 00:07:57;;;;;;;14.37;12.60;;;;;;;22.69;37.68;93495.56;6063200;28;109231;-53
2024/01/08 00:11:01;;;;;;;13.17;11.77;;;;;;;22.70;37.65;93501.66;6052169;28;109159;-53
2024/01/08 00:14:04;;;;;;;15.20;11.87;;;;;;;22.69;38.17;93500.88;6061737;28;109134;-53
2024/01/08 00:17:08;;;;;;;12.97;11.57;;;;;;;22.68;37.75;93499.34;6063219;28;109974;-53
2024/01/08 00:20:12;;;;;;;13.47;12.00;;;;;;;22.70;37.72;93501.66;6062207;28;109204;-53
2024/01/08 00:23:15;;;;;;;12.70;11.50;;;;;;;22.68;37.91;93499.34;6052704;28;108956;-53
2024/01/08 00:26:20;;;;;;;14.40;12.77;;;;;;;22.70;37.90;93509.66;6063468;28;109129;-53
2024/01/08 00:29:23;;;;;;;12.43;11.13;;;;;;;22.68;38.10;93515.34;6079426;28;109433;-54
2024/01/08 00:32:27;;;;;;;13.17;11.80;;;;;;;22.73;37.48;93506.28;6062096;28;109897;-54
2024/01/08 00:35:30;;;;;;;13.10;11.80;;;;;;;22.72;38.08;93507.41;6045970;28;110321;-54
2024/01/08 00:38:33;;;;;;;12.63;11.30;;;;;;;22.73;38.03;93513.53;6062257;28;109031;-54
2024/01/08 00:41:38;;;;;;;13.67;12.27;;;;;;;22.70;37.94;93517.66;6063381;28;110057;-54
2024/01/08 00:44:41;;;;;;;12.83;11.50;;;;;;;22.70;37.42;93518.44;6054440;28;110165;-54
2024/01/08 00:47:44;;;;;;;11.50;10.30;;;;;;;22.72;37.54;93520.75;6061110;28;108910;-54
2024/01/08 00:50:48;;;;;;;11.03;9.93;;;;;;;22.69;37.76;93522.22;6062950;28;108919;-54
2024/01/08 00:53:52;;;;;;;11.60;10.50;;;;;;;22.72;37.28;93519.97;6063727;28;109176;-59
2024/01/08 00:56:57;;;;;;;11.43;10.33;;;;;;;22.69;37.68;93532.88;6051684;28;109842;-58
2024/01/08 01:00:01;;;;;;;10.47;9.47;;;;;;;22.71;37.74;93532.53;6052609;28;110213;-58
2024/01/08 01:03:04;;;;;;;11.27;9.30;;;;;;;22.69;37.44;93538.22;6063035;28;110050;-58
2024/01/08 01:06:09;;;;;;;10.83;9.73;;;;;;;22.68;37.38;93536.69;6051254;28;109206;-59
2024/01/08 01:09:12;;;;;;;9.90;8.97;;;;;;;22.70;37.29;93533.66;6051077;28;109216;-58
2024/01/08 01:12:17;;;;;;;9.90;8.90;;;;;;;22.70;37.33;93539.00;6061945;28;109311;-59
2024/01/08 01:15:20;;;;;;;10.33;9.33;;;;;;;22.69;37.80;93538.22;6061612;28;109439;-58
2024/01/08 01:18:23;;;;;;;9.90;8.90;;;;;;;22.69;37.79;93548.13;6060351;28;109216;-58
2024/01/08 01:21:28;;;;;;;9.97;9.07;;;;;;;22.70;37.65;93541.66;6057559;28;109705;-58
2024/01/08 01:24:31;;;;;;;9.67;8.67;;;;;;;22.69;37.40;93545.44;6065155;28;110249;-59
2024/01/08 01:27:35;;;;;;;9.40;8.40;;;;;;;22.68;37.45;93549.19;6063930;28;109119;-58
2024/01/08 01:30:38;;;;;;;9.33;8.43;;;;;;;22.67;37.78;93543.09;6049341;28;111184;-59
2024/01/08 01:33:42;;;;;;;9.10;8.30;;;;;;;22.66;37.66;93544.22;6059841;28;109983;-58
2024/01/08 01:36:47;;;;;;;8.90;8.10;;;;;;;22.68;37.72;93543.88;6048849;28;109387;-58
2024/01/08 01:39:50;;;;;;;9.30;8.40;;;;;;;22.70;37.75;93547.00;6062725;28;110325;-59
2024/01/08 01:42:55;;;;;;;8.40;7.50;;;;;;;22.68;37.42;93542.00;6051123;28;110325;-58
2024/01/08 01:46:05;;;;;;;8.23;7.40;;;;;;;22.70;37.24;93547.00;6057063;28;110259;-56
2024/01/08 01:49:12;;;;;;;7.40;6.80;;;;;;;22.69;37.29;93548.88;6059336;28;110217;-59
2024/01/08 01:52:16;;;;;;;8.33;7.53;;;;;;;22.70;37.73;93550.44;6057485;28;110410;-58
2024/01/08 01:55:19;;;;;;;8.70;7.80;;;;;;;22.70;37.30;93555.00;6056998;28;109219;-58
2024/01/08 01:58:24;;;;;;;9.20;8.30;;;;;;;22.73;37.09;93553.53;6061284;28;110175;-58
2024/01/08 02:01:28;;;;;;;8.43;7.63;;;;;;;22.72;37.06;93551.97;6050228;28;108986;-58
2024/01/08 02:04:31;;;;;;;8.03;6.63;;;;;;;22.70;37.08;93545.09;6042430;28;109267;-57
2024/01/08 02:07:34;;;;;;;8.43;7.53;;;;;;;22.72;37.04;93552.75;6044037;28;109265;-58
2024/01/08 02:10:40;;;;;;;7.27;6.57;;;;;;;22.73;37.22;93558.84;6050733;28;109393;-59
2024/01/08 02:13:44;;;;;;;7.70;6.90;;;;;;;22.74;37.16;93565.75;6060457;28;109333;-58
2024/01/08 02:16:48;;;;;;;7.20;6.50;;;;;;;22.74;37.60;93560.41;6033407;28;109439;-59
2024/01/08 02:19:51;;;;;;;7.53;6.83;;;;;;;22.74;37.35;93563.84;6049090;28;109049;-58
2024/01/08 02:22:58;;;;;;;7.53;6.80;;;;;;;22.76;37.02;93566.16;6062560;28;109266;-58
2024/01/08 02:26:01;;;;;;;7.10;6.40;;;;;;;22.73;37.35;93570.28;6052774;28;109244;-58
2024/01/08 02:29:05;;;;;;;6.40;5.80;;;;;;;22.77;37.18;93565.03;6054655;28;109423;-59
2024/01/08 02:32:10;;;;;;;6.87;6.27;;;;;;;22.73;37.03;93564.97;6062434;28;109976;-58
2024/01/08 02:35:14;;;;;;;7.20;6.50;;;;;;;22.76;36.81;93574.16;6061645;28;110140;-58
2024/01/08 02:38:18;;;;;;;7.23;6.53;;;;;;;22.77;37.38;93581.81;6050903;28;110168;-59
2024/01/08 02:41:21;;;;;;;6.40;5.80;;;;;;;22.75;37.45;93578.72;6054740;28;109824;-55
2024/01/08 02:44:25;;;;;;;6.50;5.90;;;;;;;22.76;36.88;93582.94;6050505;28;109556;-58
2024/01/08 02:47:28;;;;;;;6.30;5.70;;;;;;;22.76;37.25;93584.81;6056286;28;109318;-58
2024/01/08 02:50:31;;;;;;;6.50;5.80;;;;;;;22.75;36.95;93591.28;6049878;28;109416;-58
2024/01/08 02:53:36;;;;;;;6.67;6.07;;;;;;;22.76;36.92;93590.16;6055351;28;109135;-59
2024/01/08 02:56:39;;;;;;;6.43;5.83;;;;;;;22.75;36.85;93581.38;6056583;28;109062;-59
2024/01/08 02:59:42;;;;;;;6.23;5.63;;;;;;;22.75;37.26;93596.63;6057792;28;109214;-59
2024/01/08 03:02:45;;;;;;;5.67;5.03;;;;;;;22.75;37.29;93600.06;6051190;28;109052;-58
2024/01/08 03:05:48;;;;;;;5.77;5.27;;;;;;;22.75;36.78;93607.28;6047860;28;109706;-58
2024/01/08 03:08:53;;;;;;;5.57;5.07;;;;;;;22.76;37.02;93600.84;6049875;28;109153;-57
2024/01/08 03:11:56;;;;;;;5.97;5.37;;;;;;;22.76;37.18;93608.84;6058902;28;110259;-53
2024/01/08 03:14:59;;;;;;;5.43;4.93;;;;;;;22.77;37.42;93613.03;6049881;28;110442;-52
2024/01/08 03:18:03;;;;;;;5.33;4.83;;;;;;;22.75;36.94;93604.63;6058615;28;109530;-52
2024/01/08 03:21:06;;;;;;;5.50;5.00;;;;;;;22.75;37.29;93616.06;6060097;28;110131;-52
2024/01/08 03:24:11;;;;;;;6.10;5.50;;;;;;;22.75;36.91;93616.06;6039276;28;109109;-53
2024/01/08 03:27:14;;;;;;;5.83;5.30;;;;;;;22.76;37.11;93622.94;6054882;28;110466;-53
2024/01/08 03:30:17;;;;;;;5.00;4.50;;;;;;;22.78;36.77;93619.94;6112423;28;108990;-52
2024/01/08 03:33:20;;;;;;;5.73;5.23;;;;;;;22.78;37.09;93626.03;6060249;28;109401;-52
2024/01/08 03:36:23;;;;;;;5.87;4.77;;;;;;;22.77;37.14;93624.47;6040487;28;109019;-52
2024/01/08 03:39:28;;;;;;;5.10;4.60;;;;;;;22.77;36.71;93637.03;6052501;28;110272;-52
2024/01/08 03:42:31;;;;;;;4.87;4.47;;;;;;;22.76;36.56;93638.94;6056767;28;109452;-51
2024/01/08 03:45:34;;;;;;;4.60;4.20;;;;;;;22.78;36.75;93639.38;6059645;28;109361;-52
2024/01/08 03:48:37;;;;;;;5.13;4.67;;;;;;;22.76;37.26;93641.59;6046682;28;109666;-52
2024/01/08 03:51:41;;;;;;;4.40;4.00;;;;;;;22.79;36.55;93648.16;6043429;28;109266;-52
2024/01/08 03:54:45;;;;;;;5.03;4.50;;;;;;;22.78;37.17;93657.25;6047517;28;110048;-52
2024/01/08 03:57:48;;;;;;;4.17;3.77;;;;;;;22.76;36.85;93654.16;6040071;28;109516;-53
2024/01/08 04:00:52;;;;;;;4.47;4.07;;;;;;;22.78;37.19;93654.59;6045740;28;109480;-52
2024/01/08 04:03:55;;;;;;;4.27;3.80;;;;;;;22.78;36.39;93670.59;6058583;28;108963;-52
2024/01/08 04:06:58;;;;;;;4.70;4.30;;;;;;;22.77;37.11;93672.50;6051936;28;109388;-53
2024/01/08 04:10:04;;;;;;;4.00;3.57;;;;;;;22.78;36.61;93673.25;6042098;28;109083;-52
2024/01/08 04:13:07;;;;;;;4.53;4.13;;;;;;;22.70;36.58;93683.75;6054885;28;109061;-53
2024/01/08 04:16:10;;;;;;;5.00;4.50;;;;;;;22.68;37.16;93686.00;6056253;28;109745;-53
2024/01/08 04:19:13;;;;;;;4.40;4.00;;;;;;;22.67;37.17;93689.75;6058729;28;110240;-56
2024/01/08 04:22:17;;;;;;;58.20;53.40;;;;;;;22.50;37.70;93695.38;6050172;28;109987;-62
2024/01/08 04:25:21;;;;;;;61.00;55.80;;;;;;;22.49;37.46;93698.38;6059251;28;109125;-62
2024/01/08 04:28:24;;;;;;;69.00;63.27;;;;;;;22.44;37.61;93699.41;6063474;28;110223;-61
2024/01/08 04:31:28;;;;;;;68.13;62.40;;;;;;;22.50;37.89;93700.72;6057421;28;109278;-61
2024/01/08 04:34:31;;;;;;;59.57;54.37;;;;;;;22.60;38.08;93704.81;6056083;28;111916;-62
2024/01/08 04:37:35;;;;;;;54.80;50.10;;;;;;;22.71;37.31;93708.53;6062647;28;109452;-62
2024/01/08 04:40:39;;;;;;;58.70;54.00;;;;;;;22.69;37.48;93718.78;6055171;28;109106;-59
2024/01/08 04:43:42;;;;;;;53.83;49.30;;;;;;;22.69;37.93;93718.78;6050159;28;110774;-60
2024/01/08 04:46:45;;;;;;;53.37;48.97;;;;;;;22.71;37.79;93724.53;6057033;28;111550;-61
2024/01/08 04:49:48;;;;;;;52.00;47.73;;;;;;;22.68;37.40;93735.88;6064764;28;110087;-61
2024/01/08 04:52:51;;;;;;;52.10;47.80;;;;;;;22.65;38.27;93745.31;6051947;28;109074;-61
2024/01/08 04:55:56;;;;;;;48.03;43.77;;;;;;;22.70;37.77;93742.44;6046316;28;109068;-61
2024/01/08 04:58:59;;;;;;;48.40;44.10;;;;;;;22.69;37.67;93754.22;6063523;28;110062;-61
2024/01/08 05:02:02;;;;;;;47.33;43.07;;;;;;;22.71;37.91;93748.53;6063086;28;109037;-61
2024/01/08 05:05:09;;;;;;;44.93;40.93;;;;;;;22.64;37.83;93759.00;6061193;28;110556;-61
2024/01/08 05:08:12;;;;;;;39.93;36.50;;;;;;;22.73;38.09;93764.97;6029390;28;110191;-62
2024/01/08 05:11:17;;;;;;;35.47;32.60;;;;;;;22.78;38.00;93777.28;6051284;28;109239;-60
2024/01/08 05:14:20;;;;;;;35.07;32.10;;;;;;;22.85;38.14;93774.78;6060519;28;110102;-60
2024/01/08 05:17:23;;;;;;;11.80;10.80;;;;;;;21.98;37.01;93770.81;6054381;28;109419;-59
2024/01/08 05:20:27;;;;;;;19.47;17.67;;;;;;;22.38;37.46;93788.75;6060543;28;109237;-61
2024/01/08 05:23:30;;;;;;;19.37;17.47;;;;;;;22.47;37.65;93786.69;6063055;28;109216;-61
2024/01/08 05:26:35;;;;;;;17.70;16.20;;;;;;;22.55;37.50;93795.69;6049973;28;109408;-61
2024/01/08 05:29:38;;;;;;;15.70;14.40;;;;;;;22.54;37.56;93792.25;6030964;28;109830;-61
2024/01/08 05:32:41;;;;;;;15.50;14.17;;;;;;;22.55;37.59;93804.47;6039437;28;109045;-61
2024/01/08 05:35:45;;;;;;;14.53;13.23;;;;;;;22.46;37.88;93806.47;6039841;28;109056;-61
2024/01/08 05:38:48;;;;;;;13.93;12.60;;;;;;;22.41;38.10;93812.81;6038205;28;109211;-61
2024/01/08 05:41:53;;;;;;;11.10;10.10;;;;;;;22.40;38.04;93821.16;6027529;28;109283;-62
2024/01/08 05:44:56;;;;;;;11.67;10.47;;;;;;;22.33;37.79;93821.72;6039830;28;109033;-61
2024/01/08 05:47:59;;;;;;;9.60;8.70;;;;;;;22.28;37.86;93827.28;6039326;28;110228;-61
2024/01/08 05:51:04;;;;;;;8.90;8.10;;;;;;;22.26;37.79;93842.06;6036350;28;110419;-60
2024/01/08 05:54:07;;;;;;;8.67;7.87;;;;;;;22.23;38.10;93842.75;6033638;28;108923;-62
2024/01/08 05:57:12;;;;;;;8.50;7.80;;;;;;;22.22;38.23;93849.19;6039464;28;109272;-61
2024/01/08 06:00:17;;;;;;;8.40;7.60;;;;;;;22.23;38.03;93850.72;6039010;28;109454;-60
2024/01/08 06:03:20;;;;;;;6.67;6.07;;;;;;;22.20;37.52;93862.84;6028982;28;109258;-60
2024/01/08 06:06:23;;;;;;;6.83;6.23;;;;;;;22.18;37.57;93870.41;6038647;28;109148;-61
2024/01/08 06:09:26;;;;;;;7.13;6.30;;;;;;;22.19;37.82;93868.50;6039472;28;109091;-60
2024/01/08 06:12:31;;;;;;;6.30;5.73;;;;;;;22.18;37.79;93869.59;6055927;28;110165;-61
2024/01/08 06:15:34;;;;;;;5.43;4.90;;;;;;;22.16;37.16;93879.81;6050306;28;109278;-60
2024/01/08 06:18:37;;;;;;;4.97;4.57;;;;;;;22.16;37.28;93877.16;6062336;28;109618;-60
2024/01/08 06:21:40;;;;;;;5.07;4.67;;;;;;;22.15;37.74;93880.94;6062011;28;109219;-60
2024/01/08 06:24:43;;;;;;;4.97;4.57;;;;;;;22.13;37.17;93885.81;6061938;28;109387;-61
2024/01/08 06:27:47;;;;;;;4.03;3.73;;;;;;;22.14;37.71;93890.03;6050950;28;110372;-61
2024/01/08 06:30:51;;;;;;;4.30;3.90;;;;;;;22.10;37.43;93901.34;6061973;28;110126;-61
2024/01/08 06:33:54;;;;;;;4.03;3.43;;;;;;;22.11;37.41;93904.81;6062316;28;109221;-60
2024/01/08 06:36:57;;;;;;;3.70;3.37;;;;;;;22.10;37.28;93922.69;6056661;28;109937;-60
2024/01/08 06:40:01;;;;;;;4.00;2.90;;;;;;;22.09;36.88;93921.13;6035380;28;111564;-61
2024/01/08 06:43:05;;;;;;;3.67;2.90;;;;;;;22.12;36.91;93933.00;6058270;28;109026;-56
2024/01/08 06:46:09;;;;;;;3.20;2.90;;;;;;;22.14;36.67;93938.00;6061798;28;110037;-56
2024/01/08 06:49:12;;;;;;;2.90;2.60;;;;;;;22.14;36.73;93940.66;6051792;28;109856;-56
2024/01/08 06:52:15;;;;;;;3.13;2.83;;;;;;;22.11;37.22;93950.88;6061375;28;109309;-56
2024/01/08 06:55:18;;;;;;;2.50;2.30;;;;;;;22.11;37.17;93948.19;6061447;28;109150;-57
2024/01/08 06:58:23;;;;;;;2.60;2.40;;;;;;;22.08;36.68;93964.09;6061364;28;109113;-56
2024/01/08 07:01:26;;;;;;;2.87;2.40;;;;;;;22.07;37.07;93965.97;6050587;28;109124;-56
2024/01/08 07:04:29;;;;;;;2.87;2.57;;;;;;;22.06;36.62;93980.41;6061881;28;109628;-56
2024/01/08 07:07:32;;;;;;;2.63;2.30;;;;;;;22.05;36.98;93984.19;6059021;28;109232;-56
2024/01/08 07:10:35;;;;;;;5.17;2.10;;;;;;;22.05;37.00;93988.72;6033632;28;108974;-56
2024/01/08 07:13:39;;;;;;;2.53;2.07;;;;;;;22.04;36.48;93992.50;6030765;28;110008;-56
2024/01/08 07:16:43;;;;;;;2.13;1.93;;;;;;;22.02;37.03;93986.72;6038615;28;109055;-56
2024/01/08 07:19:46;;;;;;;2.60;1.90;;;;;;;21.99;36.42;94004.13;6037801;28;109235;-55
2024/01/08 07:22:49;;;;;;;2.20;1.60;;;;;;;21.98;36.83;94002.56;6044320;28;109513;-57
2024/01/08 07:25:52;;;;;;;2.70;2.10;;;;;;;21.99;36.28;94014.78;6061468;28;109603;-56
2024/01/08 07:28:57;;;;;;;2.37;1.70;;;;;;;21.99;36.38;94022.78;6061312;28;110047;-56
2024/01/08 07:32:00;;;;;;;4.73;1.80;;;;;;;21.94;36.30;94025.66;6060703;28;109015;-55
2024/01/08 07:35:04;;;;;;;2.43;2.03;;;;;;;21.91;36.65;94036.97;6051750;28;109113;-56
2024/01/08 07:38:07;;;;;;;2.47;1.77;;;;;;;21.94;36.12;94044.31;6061020;28;109712;-56
2024/01/08 07:41:13;;;;;;;2.37;1.70;;;;;;;21.95;36.51;94053.84;6061079;28;110524;-56
2024/01/08 07:44:17;;;;;;;1.63;1.47;;;;;;;21.95;36.12;94061.84;6060343;28;110098;-56
2024/01/08 07:47:20;;;;;;;2.13;1.70;;;;;;;21.95;36.61;94059.19;6050170;28;109741;-56
2024/01/08 07:50:23;;;;;;;2.30;1.50;;;;;;;21.95;36.22;94075.16;6061038;28;110266;-55
2024/01/08 07:53:27;;;;;;;2.00;1.53;;;;;;;21.95;36.03;94074.38;6060847;28;109372;-56
2024/01/08 07:56:30;;;;;;;1.83;1.50;;;;;;;21.95;36.28;94080.47;6055594;28;110559;-56
2024/01/08 07:59:34;;;;;;;2.80;1.50;;;;;;;21.97;35.99;94085.47;6056661;28;109436;-56
2024/01/08 08:02:37;;;;;;;1.67;1.40;;;;;;;21.98;35.90;94079.81;6061703;28;110386;-56
2024/01/08 08:05:41;;;;;;;2.00;1.53;;;;;;;22.11;35.90;94084.09;6064554;28;109060;-55
2024/01/08 08:08:44;;;;;;;2.50;1.67;;;;;;;22.23;35.42;94095.91;6053632;28;109855;-55
2024/01/08 08:11:47;;;;;;;2.10;1.50;;;;;;;22.23;35.67;94096.69;6057894;28;109145;-56
2024/01/08 08:14:52;;;;;;;1.53;1.23;;;;;;;22.29;35.54;94108.69;6039744;28;109028;-56
2024/01/08 08:17:55;;;;;;;1.90;1.27;;;;;;;22.29;35.88;94105.22;6041051;28;109251;-56
2024/01/08 08:21:04;;;;;;;1.60;1.20;;;;;;;22.28;35.37;94103.69;6029896;28;109138;-57
2024/01/08 08:24:07;;;;;;;1.50;1.33;;;;;;;22.15;35.38;94115.41;6040725;28;110028;-56
2024/01/08 08:27:14;;;;;;;2.17;1.40;;;;;;;22.06;35.52;94123.50;6040341;28;108953;-57
2024/01/08 08:30:22;;;;;;;1.60;1.40;;;;;;;22.03;35.77;94119.59;6035502;28;109165;-56
2024/01/08 08:33:25;;;;;;;1.60;1.30;;;;;;;22.01;35.74;94137.00;6035432;28;110158;-56
2024/01/08 08:36:29;;;;;;;2.20;1.30;;;;;;;22.01;35.75;94134.31;6040666;28;110099;-56
2024/01/08 08:39:32;;;;;;;1.50;1.20;;;;;;;22.02;35.92;94135.91;6040096;28;109203;-56
2024/01/08 08:42:35;;;;;;;1.80;1.40;;;;;;;22.01;35.50;94143.13;6029470;28;109312;-57
2024/01/08 08:45:39;;;;;;;2.43;1.30;;;;;;;22.02;35.45;94143.91;6039314;28;109279;-56
2024/01/08 08:48:42;;;;;;;1.60;1.27;;;;;;;22.01;35.31;94148.47;6040255;28;109427;-57
2024/01/08 08:51:46;;;;;;;1.90;1.70;;;;;;;22.02;35.30;94146.56;6040584;28;109213;-57
2024/01/08 08:54:49;;;;;;;1.70;1.40;;;;;;;22.02;35.65;94143.91;6029206;28;109087;-57
2024/01/08 08:57:52;;;;;;;2.27;1.63;;;;;;;21.98;35.42;94149.09;6040306;28;110026;-57
2024/01/08 09:00:57;;;;;;;2.60;1.37;;;;;;;21.96;35.42;94153.97;6044516;28;109391;-57
2024/01/08 09:04:00;;;;;;;3.17;1.50;;;;;;;21.97;35.73;94158.19;6062079;28;109390;-60
2024/01/08 09:07:06;;;;;;;8.00;1.90;;;;;;;21.93;35.87;94164.50;6056423;28;108874;-61
2024/01/08 09:10:10;;;;;;;7.30;2.53;;;;;;;21.89;35.82;94159.03;6063709;28;112626;-62
2024/01/08 09:13:13;;;;;;;7.53;1.83;;;;;;;21.88;35.71;94159.38;6040281;28;109041;-62
2024/01/08 09:16:18;;;;;;;5.63;1.40;;;;;;;21.85;35.08;94152.03;6036001;28;109324;-61
2024/01/08 09:19:21;;;;;;;6.43;1.57;;;;;;;21.95;35.36;94164.94;6063467;28;109292;-61
2024/01/08 09:22:25;;;;;;;5.90;1.50;;;;;;;22.02;35.32;94170.53;6063213;28;109436;-61
2024/01/08 09:25:28;;;;;;;3.93;1.60;;;;;;;22.04;35.21;94155.00;6063474;28;109084;-62
2024/01/08 09:28:32;;;;;;;52.70;47.70;;;;;;;22.06;35.24;94164.22;6030134;28;111440;-62
2024/01/08 09:31:36;;;;;;;140.47;126.60;;;;;;;22.06;35.24;94164.22;6039241;28;108808;-61
2024/01/08 09:34:39;;;;;;;163.50;147.00;;;;;;;22.05;34.94;94162.69;6039674;28;110122;-61
2024/01/08 09:37:43;;;;;;;175.40;157.97;;;;;;;22.07;35.04;94171.13;6039876;28;109170;-62
2024/01/08 09:40:47;;;;;;;175.77;158.13;;;;;;;22.04;35.65;94171.78;6029145;28;109726;-61
2024/01/08 09:43:52;;;;;;;182.20;163.47;;;;;;;22.01;35.62;94174.28;6039287;28;110203;-62
2024/01/08 09:46:57;;;;;;;194.40;174.93;;;;;;;21.98;35.48;94183.72;6038349;28;109301;-62
2024/01/08 09:50:01;;;;;;;192.60;172.97;;;;;;;21.95;35.43;94183.59;6035384;28;109801;-61
2024/01/08 09:53:04;;;;;;;178.03;160.33;;;;;;;21.94;35.57;94185.47;6034272;28;110322;-62
2024/01/08 09:56:11;;;;;;;173.40;156.00;;;;;;;21.92;35.32;94187.69;6042113;28;109099;-61
2024/01/08 09:59:15;;;;;;;168.87;152.30;;;;;;;21.91;35.61;94180.81;6062837;28;110693;-62
2024/01/08 10:02:20;;;;;;;155.87;140.37;;;;;;;21.92;35.55;94182.38;6039784;28;108870;-62
2024/01/08 10:05:23;;;;;;;150.03;135.40;;;;;;;21.92;35.58;94181.59;6039454;28;109439;-62
2024/01/08 10:08:30;;;;;;;139.37;125.57;;;;;;;21.92;35.40;94184.25;6046324;28;109096;-62
2024/01/08 10:11:34;;;;;;;135.53;122.17;;;;;;;21.92;35.40;94185.03;6062437;28;110066;-61
2024/01/08 10:14:38;;;;;;;129.27;116.47;;;;;;;21.91;35.36;94185.34;6050743;28;109087;-57
2024/01/08 10:17:42;;;;;;;118.77;107.13;;;;;;;21.90;35.06;94183.78;6061424;28;110288;-57
2024/01/08 10:20:46;;;;;;;113.93;102.97;;;;;;;21.91;35.30;94180.03;6062808;28;109077;-57
2024/01/08 10:23:49;;;;;;;107.83;96.83;;;;;;;21.90;34.91;94184.56;6057171;28;110144;-58
2024/01/08 10:26:52;;;;;;;100.70;90.63;;;;;;;21.90;35.24;94189.91;6056118;28;109121;-58
2024/01/08 10:29:56;;;;;;;97.37;87.87;;;;;;;21.88;35.40;94186.78;6062301;28;110236;-58
2024/01/08 10:33:01;;;;;;;91.90;82.93;;;;;;;21.86;35.04;94185.56;6061756;28;109028;-58
2024/01/08 10:36:05;;;;;;;86.23;76.00;;;;;;;21.86;34.70;94190.88;6051524;28;109331;-57
2024/01/08 10:39:09;;;;;;;85.07;75.80;;;;;;;21.85;34.85;94187.44;6061743;28;109124;-57
2024/01/08 10:42:12;;;;;;;75.03;67.00;;;;;;;21.84;35.21;94190.41;6061795;28;109652;-57
2024/01/08 10:45:16;;;;;;;73.17;65.60;;;;;;;21.84;35.08;94185.84;6062466;28;109031;-57
2024/01/08 10:48:23;;;;;;;67.27;57.77;;;;;;;21.85;35.07;94195.44;6031595;28;111182;-57
2024/01/08 10:51:27;;;;;;;65.37;58.30;;;;;;;21.84;35.15;94196.50;6038432;28;110052;-56
2024/01/08 10:54:40;;;;;;;62.97;54.73;;;;;;;21.85;34.77;94192.78;6037984;28;109275;-56
2024/01/08 10:57:53;;;;;;;62.77;53.20;;;;;;;21.85;34.52;94186.66;6035862;28;109168;-56
2024/01/08 11:00:57;;;;;;;52.97;47.47;;;;;;;21.85;34.74;94203.44;6076444;28;109240;-57
2024/01/08 11:04:03;;;;;;;53.40;47.40;;;;;;;21.86;34.69;94196.22;6038516;28;109220;-56
2024/01/08 11:07:09;;;;;;;48.90;43.70;;;;;;;21.85;34.70;94205.31;6038276;28;109221;-56
2024/01/08 11:10:12;;;;;;;46.20;41.47;;;;;;;21.85;34.79;94203.44;6027729;28;109583;-57
2024/01/08 11:13:16;;;;;;;48.10;41.37;;;;;;;21.84;34.77;94207.16;6037807;28;109092;-58
2024/01/08 11:16:28;;;;;;;42.30;38.10;;;;;;;21.82;34.60;94214.69;6037801;28;109021;-58
2024/01/08 11:19:32;;;;;;;53.27;38.40;;;;;;;21.82;34.67;94225.34;6037435;28;110404;-56
2024/01/08 11:22:37;;;;;;;65.73;36.40;;;;;;;21.81;34.77;94218.44;6027988;28;110045;-57
2024/01/08 11:25:49;;;;;;;44.53;33.50;;;;;;;21.79;34.33;94226.75;6037780;28;109154;-57
2024/01/08 11:29:02;;;;;;;56.20;31.87;;;;;;;21.79;34.22;94221.44;6038091;28;110110;-57
2024/01/08 11:32:54;;;;;;;58.10;30.77;;;;;;;21.76;34.33;94226.63;6032877;28;110191;-59
2024/01/08 11:36:00;;;;;;;62.77;30.30;;;;;;;21.76;34.51;94226.63;6038175;28;108918;-58
2024/01/08 11:39:13;;;;;;;59.27;29.50;;;;;;;21.79;34.71;94225.97;6037053;28;110078;-57
2024/01/08 11:42:18;;;;;;;43.50;26.80;;;;;;;21.77;34.30;94220.97;6046114;28;110162;-57
2024/01/08 11:45:21;;;;;;;49.67;27.73;;;;;;;21.79;34.18;94236.63;6049920;28;109392;-58
2024/01/08 11:48:27;;;;;;;48.00;25.40;;;;;;;21.80;34.01;94238.19;6042550;28;109030;-56
2024/01/08 11:51:31;;;;;;;43.00;24.27;;;;;;;21.81;34.54;94237.09;6060145;28;110936;-58
2024/01/08 11:54:34;;;;;;;45.13;23.00;;;;;;;21.83;34.35;94242.88;6060740;28;108860;-57
2024/01/08 11:57:38;;;;;;;32.73;21.00;;;;;;;22.00;34.08;94252.66;6050399;28;110899;-58
2024/01/08 12:00:41;;;;;;;29.37;19.97;;;;;;;22.05;33.86;94245.25;6061083;28;110147;-59
2024/01/08 12:03:44;;;;;;;33.03;20.40;;;;;;;22.09;34.05;94240.06;6060740;28;108952;-56
2024/01/08 12:06:54;;;;;;;27.70;16.93;;;;;;;22.20;34.69;94256.44;6057731;28;110140;-57
2024/01/08 12:09:58;;;;;;;35.57;19.03;;;;;;;22.13;34.07;94256.19;6030816;28;109342;-59
2024/01/08 12:13:02;;;;;;;26.80;16.10;;;;;;;21.99;34.23;94265.19;6049696;28;110257;-58
2024/01/08 12:16:05;;;;;;;20.77;14.73;;;;;;;21.91;34.38;94262.59;6060252;28;109094;-56
2024/01/08 12:19:12;;;;;;;22.20;15.43;;;;;;;21.86;34.26;94273.44;6050689;28;109257;-56
2024/01/08 12:22:18;;;;;;;20.67;14.67;;;;;;;21.86;34.29;94268.13;6059011;28;110052;-57
2024/01/08 12:25:21;;;;;;;26.70;14.07;;;;;;;21.88;33.94;94266.69;6060407;28;110193;-56
2024/01/08 12:28:27;;;;;;;17.97;12.57;;;;;;;21.85;33.81;94275.34;6060076;28;109771;-57
2024/01/08 12:31:33;;;;;;;27.03;13.33;;;;;;;21.82;33.93;94275.97;6050765;28;110073;-57
2024/01/08 12:34:39;;;;;;;15.90;12.07;;;;;;;21.81;34.25;94277.03;6036563;28;109100;-56
2024/01/08 12:37:44;;;;;;;18.60;12.60;;;;;;;21.79;34.48;94268.59;6036690;28;110700;-56
2024/01/08 12:40:51;;;;;;;20.30;11.70;;;;;;;21.82;33.77;94286.59;6036211;28;109372;-57
2024/01/08 12:43:55;;;;;;;17.27;11.10;;;;;;;21.80;34.05;94286.13;6043760;28;109154;-57
2024/01/08 12:46:59;;;;;;;18.10;10.77;;;;;;;21.81;33.73;94287.69;6060187;28;109519;-56
2024/01/08 12:50:02;;;;;;;16.30;10.20;;;;;;;21.80;34.29;94294.88;6063115;28;110392;-57
2024/01/08 12:53:07;;;;;;;17.90;10.87;;;;;;;21.76;33.84;94296.66;6055577;28;109782;-58
2024/01/08 12:56:10;;;;;;;15.07;10.93;;;;;;;21.78;34.23;94301.66;6062890;28;109068;-56
2024/01/08 12:59:15;;;;;;;13.47;9.77;;;;;;;21.77;33.81;94300.09;6063451;28;110136;-57
2024/01/08 13:02:18;;;;;;;18.30;10.77;;;;;;;21.77;34.00;94300.09;6062828;28;109147;-56
2024/01/08 13:05:21;;;;;;;13.60;9.53;;;;;;;21.77;33.69;94300.09;6053130;28;110179;-57
2024/01/08 13:08:26;;;;;;;12.27;9.40;;;;;;;21.75;33.99;94304.97;6062985;28;109233;-56
2024/01/08 13:11:29;;;;;;;14.67;9.03;;;;;;;21.75;33.75;94316.38;6062740;28;109067;-56
2024/01/08 13:14:32;;;;;;;14.13;8.73;;;;;;;21.74;33.60;94314.81;6041642;28;110327;-56
2024/01/08 13:17:36;;;;;;;23.87;9.57;;;;;;;21.75;33.63;94316.38;6029189;28;109637;-57
2024/01/08 13:20:39;;;;;;;42.90;11.03;;;;;;;21.74;33.25;94309.50;6039369;28;109153;-57
2024/01/08 13:23:45;;;;;;;31.50;8.87;;;;;;;21.76;33.85;94319.84;6038940;28;110703;-57
2024/01/08 13:26:49;;;;;;;28.70;8.40;;;;;;;21.76;33.54;94320.59;6034287;28;109282;-58
2024/01/08 13:29:52;;;;;;;37.57;9.97;;;;;;;21.75;33.57;94321.72;6033984;28;110107;-57
2024/01/08 13:32:55;;;;;;;34.60;9.80;;;;;;;21.75;34.05;94324.38;6046846;28;108726;-57
2024/01/08 13:35:59;;;;;;;24.53;8.57;;;;;;;21.74;34.04;94330.03;6062769;28;109059;-57
2024/01/08 13:39:04;;;;;;;27.67;7.57;;;;;;;21.75;33.78;94323.59;6051315;28;109111;-57
2024/01/08 13:42:08;;;;;;;30.53;7.70;;;;;;;21.74;33.81;94338.00;6061668;28;109110;-57
2024/01/08 13:45:12;;;;;;;26.13;7.37;;;;;;;21.72;33.83;94343.66;6039606;28;110553;-57
2024/01/08 13:48:15;;;;;;;21.90;8.07;;;;;;;21.69;33.39;94349.63;6039414;28;110195;-57
2024/01/08 13:51:18;;;;;;;19.40;6.83;;;;;;;21.67;33.56;94348.38;6028723;28;109101;-57
2024/01/08 13:54:24;;;;;;;22.77;7.17;;;;;;;21.65;33.68;94348.69;6038408;28;109168;-57
2024/01/08 13:57:27;;;;;;;17.77;8.00;;;;;;;21.65;34.02;94358.56;6039528;28;109029;-57
2024/01/08 14:00:31;;;;;;;14.17;6.70;;;;;;;21.65;34.01;94350.56;6037098;28;109303;-58
2024/01/08 14:03:34;;;;;;;17.73;7.10;;;;;;;21.64;34.11;94354.34;6043645;28;110732;-57
2024/01/08 14:06:38;;;;;;;17.60;5.80;;;;;;;21.64;33.75;94354.34;6062187;28;109026;-56